createdAt,value
2022-11-16T00:02:07.445Z,11.93
2022-11-16T00:09:22.547Z,12.77
2022-11-16T00:16:24.126Z,12.98
2022-11-16T00:23:25.715Z,12.25
2022-11-16T00:30:27.285Z,13.18
2022-11-16T00:37:28.886Z,11.15
2022-11-16T00:44:30.532Z,12.68
2022-11-16T00:51:32.806Z,10.95
2022-11-16T00:58:34.895Z,11.23
2022-11-16T01:05:41.098Z,13.80
2022-11-16T01:12:42.981Z,12.65
2022-11-16T01:19:44.611Z,13.43
2022-11-16T01:26:46.258Z,11.57
2022-11-16T01:33:48.339Z,11.73
2022-11-16T01:40:59.327Z,12.52
2022-11-16T01:48:04.743Z,11.25
2022-11-16T01:55:08.898Z,12.23
2022-11-16T02:02:20.535Z,12.50
2022-11-16T02:09:49.861Z,10.52
2022-11-16T02:17:19.788Z,12.32
2022-11-16T02:24:56.785Z,12.43
2022-11-16T02:32:23.298Z,11.60
2022-11-16T02:39:27.146Z,10.95
2022-11-16T02:46:36.041Z,13.18
2022-11-16T02:53:57.598Z,12.40
2022-11-16T03:01:03.288Z,14.60
2022-11-16T03:08:20.369Z,13.35
2022-11-16T03:15:23.976Z,12.55
2022-11-16T03:22:35.387Z,11.95
2022-11-16T03:29:47.112Z,9.20
2022-11-16T03:36:48.787Z,13.27
2022-11-16T03:43:50.528Z,13.10
2022-11-16T03:50:53.130Z,12.40
2022-11-16T03:57:55.585Z,16.40
2022-11-16T04:05:17.604Z,15.75
2022-11-16T04:12:37.846Z,14.27
2022-11-16T04:19:58.485Z,14.07
2022-11-16T04:27:22.825Z,14.88
2022-11-16T04:34:43.257Z,13.57
2022-11-16T04:42:03.584Z,16.95
2022-11-16T04:49:06.773Z,14.27
2022-11-16T04:56:08.514Z,14.95
2022-11-16T05:03:10.364Z,14.07
2022-11-16T05:10:13.912Z,15.40
2022-11-16T05:17:16.108Z,14.23
2022-11-16T05:24:36.011Z,14.70
2022-11-16T05:31:40.585Z,16.42
2022-11-16T05:38:43.618Z,15.13
2022-11-16T05:45:45.606Z,16.00
2022-11-16T05:52:49.561Z,15.32
2022-11-16T05:59:51.239Z,15.70
2022-11-16T06:06:53.293Z,17.05
2022-11-16T06:13:55.053Z,14.05
2022-11-16T06:20:56.804Z,15.18
2022-11-16T06:28:01.913Z,13.68
2022-11-16T06:35:08.105Z,15.85
2022-11-16T06:42:10.109Z,18.23
2022-11-16T06:49:13.663Z,14.20
2022-11-16T06:56:16.313Z,15.48
2022-11-16T07:03:23.737Z,16.33
2022-11-16T07:10:25.760Z,14.52
2022-11-16T07:17:28.324Z,16.50
2022-11-16T07:24:30.398Z,14.95
2022-11-16T07:31:32.149Z,16.63
2022-11-16T07:39:07.021Z,15.95
2022-11-16T07:46:45.459Z,14.23
2022-11-16T07:53:43.367Z,17.80
2022-11-16T08:00:45.055Z,13.48
2022-11-16T08:07:49.766Z,16.85
2022-11-16T08:14:52.749Z,14.18
2022-11-16T08:21:55.302Z,13.68
2022-11-16T08:28:57.373Z,11.48
2022-11-16T08:36:14.176Z,11.05
2022-11-16T08:43:17.343Z,13.32
2022-11-16T08:50:19.297Z,11.95
2022-11-16T08:57:20.920Z,11.50
2022-11-16T09:04:29.608Z,13.90
2022-11-16T09:11:33.181Z,11.05
2022-11-16T09:18:35.409Z,9.95
2022-11-16T09:25:37.170Z,10.10
2022-11-16T09:32:38.747Z,10.32
2022-11-16T09:39:40.304Z,7.05
2022-11-16T09:46:44.012Z,12.50
2022-11-16T09:53:47.576Z,9.25
2022-11-16T10:00:54.234Z,11.50
2022-11-16T10:08:33.800Z,10.02
2022-11-16T10:15:50.305Z,9.80
2022-11-16T10:23:01.155Z,9.10
2022-11-16T10:30:16.069Z,9.50
2022-11-16T10:37:17.644Z,8.85
2022-11-16T10:44:39.772Z,10.80
2022-11-16T10:51:41.423Z,10.15
2022-11-16T10:58:49.809Z,9.27
2022-11-16T11:05:54.444Z,9.25
2022-11-16T11:13:22.307Z,12.70
2022-11-16T11:20:24.378Z,9.07
2022-11-16T11:27:29.096Z,10.35
2022-11-16T11:34:41.715Z,12.43
2022-11-16T11:41:44.188Z,11.82
2022-11-16T11:48:56.538Z,10.57
2022-11-16T11:55:58.503Z,8.85
2022-11-16T12:03:26.705Z,9.93
2022-11-16T12:10:40.959Z,7.18
2022-11-16T12:18:03.395Z,9.57
2022-11-16T12:25:14.906Z,11.13
2022-11-16T12:32:16.435Z,11.15
2022-11-16T12:39:34.472Z,10.77
2022-11-16T12:46:54.873Z,11.35
2022-11-16T12:54:12.498Z,12.23
2022-11-16T13:01:17.919Z,12.63
2022-11-16T13:08:23.298Z,11.15
2022-11-16T13:15:37.161Z,10.45
2022-11-16T13:22:38.696Z,9.32
2022-11-16T13:29:47.759Z,10.07
2022-11-16T13:36:49.336Z,9.93
2022-11-16T13:43:50.959Z,8.70
2022-11-16T13:50:57.448Z,9.15
2022-11-16T13:58:00.305Z,8.77
2022-11-16T14:05:11.830Z,8.85
2022-11-16T14:12:38.316Z,7.40
2022-11-16T14:19:49.130Z,8.45
2022-11-16T14:27:18.678Z,8.57
2022-11-16T14:34:22.830Z,8.30
2022-11-16T14:41:24.434Z,7.95
2022-11-16T14:48:26.149Z,7.63
2022-11-16T14:55:27.863Z,8.00
2022-11-16T15:02:29.432Z,7.20
2022-11-16T15:09:36.955Z,8.02
2022-11-16T15:16:51.915Z,7.63
2022-11-16T15:24:23.421Z,5.43
2022-11-16T15:31:15.383Z,6.22
2022-11-16T15:38:18.904Z,6.53
2022-11-16T15:45:24.866Z,5.53
2022-11-16T15:52:45.884Z,6.25
2022-11-16T16:00:00.020Z,5.97
2022-11-16T16:07:01.712Z,6.80
2022-11-16T16:14:03.587Z,5.63
2022-11-16T16:21:05.178Z,6.68
2022-11-16T16:28:06.734Z,7.55
2022-11-16T16:35:15.316Z,6.25
2022-11-16T16:42:17.085Z,6.45
2022-11-16T16:49:18.664Z,6.63
2022-11-16T16:56:20.273Z,7.15
2022-11-16T17:03:21.879Z,5.32
2022-11-16T17:10:23.590Z,6.30
2022-11-16T17:17:25.458Z,6.70
2022-11-16T17:24:27.029Z,6.50
2022-11-16T17:31:28.655Z,6.93
2022-11-16T17:38:31.175Z,3.95
2022-11-16T17:45:32.774Z,6.38
2022-11-16T17:52:34.338Z,4.72
2022-11-16T17:59:35.953Z,4.93
2022-11-16T18:06:37.613Z,5.40
2022-11-16T18:13:39.254Z,5.53
2022-11-16T18:20:40.819Z,5.40
2022-11-16T18:27:42.385Z,4.70
2022-11-16T18:34:44.035Z,5.10
2022-11-16T18:41:51.536Z,5.55
2022-11-16T18:48:56.114Z,4.55
2022-11-16T18:55:58.350Z,4.25
2022-11-16T19:03:00.091Z,4.80
2022-11-16T19:10:01.648Z,4.38
2022-11-16T19:17:04.826Z,5.28
2022-11-16T19:24:06.728Z,3.95
2022-11-16T19:31:08.876Z,3.95
2022-11-16T19:38:10.484Z,4.57
2022-11-16T19:45:12.033Z,4.70
2022-11-16T19:52:13.855Z,3.78
2022-11-16T19:59:15.397Z,4.07
2022-11-16T20:06:19.180Z,4.07
2022-11-16T20:13:22.008Z,4.63
2022-11-16T20:20:23.605Z,4.82
2022-11-16T20:27:25.416Z,4.82
2022-11-16T20:34:27.026Z,4.60
2022-11-16T20:41:29.887Z,4.13
2022-11-16T20:48:31.473Z,4.65
2022-11-16T20:55:33.083Z,4.50
2022-11-16T21:02:34.729Z,5.55
2022-11-16T21:09:56.315Z,5.05
2022-11-16T21:16:57.926Z,3.58
2022-11-16T21:23:59.563Z,4.78
2022-11-16T21:31:02.444Z,4.35
2022-11-16T21:38:04.045Z,5.30
2022-11-16T21:45:06.143Z,4.97
2022-11-16T21:52:07.735Z,6.35
2022-11-16T21:59:09.352Z,4.25
2022-11-16T22:06:31.921Z,5.00
2022-11-16T22:13:34.133Z,3.65
2022-11-16T22:20:35.950Z,4.68
2022-11-16T22:27:52.337Z,4.40
2022-11-16T22:34:59.193Z,4.00
2022-11-16T22:42:01.093Z,4.82
2022-11-16T22:49:02.693Z,3.30
2022-11-16T22:56:06.181Z,5.00
2022-11-16T23:03:07.819Z,3.92
2022-11-16T23:10:09.964Z,4.13
2022-11-16T23:17:11.543Z,4.65
2022-11-16T23:24:32.379Z,6.10
2022-11-16T23:31:35.400Z,5.30
2022-11-16T23:38:37.027Z,5.07
2022-11-16T23:45:39.201Z,4.10
2022-11-16T23:52:40.792Z,5.40
2022-11-16T23:59:42.407Z,4.80
